sensor_id;sensor_type;location;lat;lon;timestamp;pressure;altitude;pressure_sealevel;temperature;humidity
6899;BME280;3488;42.616;23.350;2023-04-25T00:00:58;63072.56;;;10.42;100.00
6899;BME280;3488;42.616;23.350;2023-04-25T00:03:25;63050.31;;;10.20;100.00
6899;BME280;3488;42.616;23.350;2023-04-25T00:05:53;63042.53;;;10.10;100.00
6899;BME280;3488;42.616;23.350;2023-04-25T00:08:22;63039.88;;;10.05;100.00
6899;BME280;3488;42.616;23.350;2023-04-25T00:10:50;63039.44;;;10.10;100.00
6899;BME280;3488;42.616;23.350;2023-04-25T00:13:17;63049.75;;;10.17;100.00
6899;BME280;3488;42.616;23.350;2023-04-25T00:15:44;63059.63;;;10.29;100.00
6899;BME280;3488;42.616;23.350;2023-04-25T00:18:14;63019.81;;;9.93;100.00
6899;BME280;3488;42.616;23.350;2023-04-25T00:20:41;63036.34;;;10.07;100.00
6899;BME280;3488;42.616;23.350;2023-04-25T00:23:12;63028.09;;;10.01;100.00
6899;BME280;3488;42.616;23.350;2023-04-25T00:25:43;63019.84;;;9.96;100.00
6899;BME280;3488;42.616;23.350;2023-04-25T00:28:11;63025.94;;;9.94;100.00
6899;BME280;3488;42.616;23.350;2023-04-25T00:30:38;63012.03;;;9.83;100.00
6899;BME280;3488;42.616;23.350;2023-04-25T00:33:05;63015.13;;;9.86;100.00
6899;BME280;3488;42.616;23.350;2023-04-25T00:35:32;63018.69;;;9.87;100.00
6899;BME280;3488;42.616;23.350;2023-04-25T00:37:59;63017.19;;;9.88;100.00
6899;BME280;3488;42.616;23.350;2023-04-25T00:40:27;63018.75;;;9.90;100.00
6899;BME280;3488;42.616;23.350;2023-04-25T00:42:54;63015.16;;;9.89;100.00
6899;BME280;3488;42.616;23.350;2023-04-25T00:45:27;63018.19;;;9.87;100.00
6899;BME280;3488;42.616;23.350;2023-04-25T00:47:54;63020.81;;;9.92;100.00
6899;BME280;3488;42.616;23.350;2023-04-25T00:50:22;63017.28;;;9.93;100.00
6899;BME280;3488;42.616;23.350;2023-04-25T00:52:49;63022.84;;;9.91;100.00
6899;BME280;3488;42.616;23.350;2023-04-25T00:55:16;63008.88;;;9.78;100.00
6899;BME280;3488;42.616;23.350;2023-04-25T00:57:43;63010.47;;;9.82;100.00
6899;BME280;3488;42.616;23.350;2023-04-25T01:00:11;63012.06;;;9.86;100.00
6899;BME280;3488;42.616;23.350;2023-04-25T01:02:41;63016.69;;;9.88;100.00
6899;BME280;3488;42.616;23.350;2023-04-25T01:05:08;63016.16;;;9.87;100.00
6899;BME280;3488;42.616;23.350;2023-04-25T01:07:36;63025.47;;;9.96;100.00
6899;BME280;3488;42.616;23.350;2023-04-25T01:10:04;63029.09;;;10.00;100.00
6899;BME280;3488;42.616;23.350;2023-04-25T01:12:32;63032.72;;;10.03;100.00
6899;BME280;3488;42.616;23.350;2023-04-25T01:14:59;63037.91;;;10.08;100.00
6899;BME280;3488;42.616;23.350;2023-04-25T01:17:26;63034.22;;;10.02;100.00
6899;BME280;3488;42.616;23.350;2023-04-25T01:19:55;63034.25;;;10.05;100.00
6899;BME280;3488;42.616;23.350;2023-04-25T01:22:23;63038.34;;;10.06;100.00
6899;BME280;3488;42.616;23.350;2023-04-25T01:24:50;63036.28;;;10.04;100.00
6899;BME280;3488;42.616;23.350;2023-04-25T01:27:18;63018.75;;;9.90;100.00
6899;BME280;3488;42.616;23.350;2023-04-25T01:29:46;63014.09;;;9.85;100.00
6899;BME280;3488;42.616;23.350;2023-04-25T01:32:13;63023.38;;;9.92;100.00
6899;BME280;3488;42.616;23.350;2023-04-25T01:34:41;63006.91;;;9.81;100.00
6899;BME280;3488;42.616;23.350;2023-04-25T01:37:08;63006.38;;;9.80;100.00
6899;BME280;3488;42.616;23.350;2023-04-25T01:39:37;62992.94;;;9.67;100.00
6899;BME280;3488;42.616;23.350;2023-04-25T01:42:04;62980.97;;;9.51;100.00
6899;BME280;3488;42.616;23.350;2023-04-25T01:44:31;62976.84;;;9.49;100.00
6899;BME280;3488;42.616;23.350;2023-04-25T01:46:58;62979.41;;;9.49;100.00
6899;BME280;3488;42.616;23.350;2023-04-25T01:49:25;62979.44;;;9.52;100.00
6899;BME280;3488;42.616;23.350;2023-04-25T01:51:52;62984.63;;;9.57;100.00
6899;BME280;3488;42.616;23.350;2023-04-25T01:54:19;62990.34;;;9.65;100.00
6899;BME280;3488;42.616;23.350;2023-04-25T01:56:51;62991.34;;;9.63;100.00
6899;BME280;3488;42.616;23.350;2023-04-25T01:59:19;62975.38;;;9.53;100.00
6899;BME280;3488;42.616;23.350;2023-04-25T02:01:47;62990.31;;;9.62;100.00
6899;BME280;3488;42.616;23.350;2023-04-25T02:04:14;62998.53;;;9.68;100.00
6899;BME280;3488;42.616;23.350;2023-04-25T02:06:42;62991.34;;;9.63;100.00
6899;BME280;3488;42.616;23.350;2023-04-25T02:09:08;62989.88;;;9.67;100.00
6899;BME280;3488;42.616;23.350;2023-04-25T02:11:36;63014.56;;;9.83;100.00
6899;BME280;3488;42.616;23.350;2023-04-25T02:14:05;63004.78;;;9.76;100.00
6899;BME280;3488;42.616;23.350;2023-04-25T02:16:32;63019.22;;;9.88;100.00
6899;BME280;3488;42.616;23.350;2023-04-25T02:18:59;63024.44;;;9.95;100.00
6899;BME280;3488;42.616;23.350;2023-04-25T02:21:26;63012.06;;;9.86;100.00
6899;BME280;3488;42.616;23.350;2023-04-25T02:23:53;63008.44;;;9.82;100.00
6899;BME280;3488;42.616;23.350;2023-04-25T02:26:20;63026.41;;;9.92;100.00
6899;BME280;3488;42.616;23.350;2023-04-25T02:28:49;63014.09;;;9.85;100.00
6899;BME280;3488;42.616;23.350;2023-04-25T02:31:18;62999.63;;;9.71;100.00
6899;BME280;3488;42.616;23.350;2023-04-25T02:33:45;62992.38;;;9.64;100.00
6899;BME280;3488;42.616;23.350;2023-04-25T02:36:12;62990.91;;;9.68;100.00
6899;BME280;3488;42.616;23.350;2023-04-25T02:38:38;62994.44;;;9.66;100.00
6899;BME280;3488;42.616;23.350;2023-04-25T02:41:06;62998.56;;;9.70;100.00
6899;BME280;3488;42.616;23.350;2023-04-25T02:43:33;62991.81;;;9.61;100.00
6899;BME280;3488;42.616;23.350;2023-04-25T02:46:00;62987.22;;;9.59;100.00
6899;BME280;3488;42.616;23.350;2023-04-25T02:48:28;62983.53;;;9.53;100.00
6899;BME280;3488;42.616;23.350;2023-04-25T02:50:55;62987.72;;;9.60;100.00
6899;BME280;3488;42.616;23.350;2023-04-25T02:53:22;62978.94;;;9.51;100.00
6899;BME280;3488;42.616;23.350;2023-04-25T02:55:50;62984.63;;;9.57;100.00
6899;BME280;3488;42.616;23.350;2023-04-25T02:58:18;62985.09;;;9.55;100.00
6899;BME280;3488;42.616;23.350;2023-04-25T03:00:45;62979.50;;;9.54;100.00
6899;BME280;3488;42.616;23.350;2023-04-25T03:03:12;62972.25;;;9.47;100.00
6899;BME280;3488;42.616;23.350;2023-04-25T03:05:40;62955.16;;;9.28;100.00
6899;BME280;3488;42.616;23.350;2023-04-25T03:08:07;62941.09;;;9.09;100.00
6899;BME280;3488;42.616;23.350;2023-04-25T03:10:34;62926.72;;;9.00;100.00
6899;BME280;3488;42.616;23.350;2023-04-25T03:13:01;62927.22;;;9.01;100.00
6899;BME280;3488;42.616;23.350;2023-04-25T03:15:28;62924.19;;;9.00;100.00
6899;BME280;3488;42.616;23.350;2023-04-25T03:17:55;62939.06;;;9.10;100.00
6899;BME280;3488;42.616;23.350;2023-04-25T03:20:21;62944.81;;;9.18;100.00
6899;BME280;3488;42.616;23.350;2023-04-25T03:22:50;62935.59;;;9.14;100.00
6899;BME280;3488;42.616;23.350;2023-04-25T03:25:17;62944.78;;;9.15;100.00
6899;BME280;3488;42.616;23.350;2023-04-25T03:27:44;62943.84;;;9.19;100.00
6899;BME280;3488;42.616;23.350;2023-04-25T03:30:11;62947.91;;;9.21;100.00
6899;BME280;3488;42.616;23.350;2023-04-25T03:32:38;62950.50;;;9.23;100.00
6899;BME280;3488;42.616;23.350;2023-04-25T03:35:06;62951.09;;;9.29;100.00
6899;BME280;3488;42.616;23.350;2023-04-25T03:37:33;62962.94;;;9.38;100.00
6899;BME280;3488;42.616;23.350;2023-04-25T03:40:03;62951.06;;;9.26;100.00
6899;BME280;3488;42.616;23.350;2023-04-25T03:42:30;62950.56;;;9.28;100.00
6899;BME280;3488;42.616;23.350;2023-04-25T03:44:57;62959.81;;;9.32;100.00
6899;BME280;3488;42.616;23.350;2023-04-25T03:47:24;62971.13;;;9.41;100.00
6899;BME280;3488;42.616;23.350;2023-04-25T03:49:51;62980.47;;;9.53;100.00
6899;BME280;3488;42.616;23.350;2023-04-25T03:52:18;62996.94;;;9.64;100.00
6899;BME280;3488;42.616;23.350;2023-04-25T03:54:45;62996.56;;;9.71;100.00
6899;BME280;3488;42.616;23.350;2023-04-25T03:57:14;63011.59;;;9.88;100.00
6899;BME280;3488;42.616;23.350;2023-04-25T03:59:41;63025.06;;;10.01;100.00
6899;BME280;3488;42.616;23.350;2023-04-25T04:02:08;63053.94;;;10.24;100.00
6899;BME280;3488;42.616;23.350;2023-04-25T04:04:35;63068.47;;;10.40;100.00
6899;BME280;3488;42.616;23.350;2023-04-25T04:07:03;63096.38;;;10.65;100.00
6899;BME280;3488;42.616;23.350;2023-04-25T04:09:30;63115.56;;;10.86;100.00
6899;BME280;3488;42.616;23.350;2023-04-25T04:11:57;63127.91;;;10.93;100.00
6899;BME280;3488;42.616;23.350;2023-04-25T04:14:25;63136.75;;;11.04;100.00
6899;BME280;3488;42.616;23.350;2023-04-25T04:16:52;63147.13;;;11.17;100.00
6899;BME280;3488;42.616;23.350;2023-04-25T04:19:20;63143.50;;;11.13;100.00
6899;BME280;3488;42.616;23.350;2023-04-25T04:21:47;63097.41;;;10.66;100.00
6899;BME280;3488;42.616;23.350;2023-04-25T04:24:15;63077.75;;;10.47;100.00
6899;BME280;3488;42.616;23.350;2023-04-25T04:26:43;63080.78;;;10.47;100.00
6899;BME280;3488;42.616;23.350;2023-04-25T04:29:11;63078.78;;;10.48;100.00
6899;BME280;3488;42.616;23.350;2023-04-25T04:31:48;63082.38;;;10.49;100.00
6899;BME280;3488;42.616;23.350;2023-04-25T04:34:15;63093.28;;;10.62;100.00
6899;BME280;3488;42.616;23.350;2023-04-25T04:36:43;63094.28;;;10.63;100.00
6899;BME280;3488;42.616;23.350;2023-04-25T04:39:12;63096.34;;;10.63;100.00
6899;BME280;3488;42.616;23.350;2023-04-25T04:41:38;63075.59;;;10.40;100.00
6899;BME280;3488;42.616;23.350;2023-04-25T04:44:06;63085.53;;;10.57;100.00
6899;BME280;3488;42.616;23.350;2023-04-25T04:46:34;63093.81;;;10.65;100.00
6899;BME280;3488;42.616;23.350;2023-04-25T04:49:05;63091.78;;;10.66;100.00
6899;BME280;3488;42.616;23.350;2023-04-25T04:51:32;63108.78;;;10.77;100.00
6899;BME280;3488;42.616;23.350;2023-04-25T04:53:59;63128.44;;;10.94;100.00
6899;BME280;3488;42.616;23.350;2023-04-25T04:56:28;63130.00;;;10.98;100.00
6899;BME280;3488;42.616;23.350;2023-04-25T04:58:55;63135.19;;;11.03;100.00
6899;BME280;3488;42.616;23.350;2023-04-25T05:01:22;63110.84;;;10.77;100.00
6899;BME280;3488;42.616;23.350;2023-04-25T05:03:49;63118.06;;;10.84;100.00
6899;BME280;3488;42.616;23.350;2023-04-25T05:06:18;63121.72;;;10.90;100.00
6899;BME280;3488;42.616;23.350;2023-04-25T05:08:45;63106.25;;;10.77;100.00
6899;BME280;3488;42.616;23.350;2023-04-25T05:11:12;63082.94;;;10.55;100.00
6899;BME280;3488;42.616;23.350;2023-04-25T05:13:39;63064.81;;;10.34;100.00
6899;BME280;3488;42.616;23.350;2023-04-25T05:16:06;63063.22;;;10.30;100.00
6899;BME280;3488;42.616;23.350;2023-04-25T05:18:33;63073.59;;;10.43;100.00
6899;BME280;3488;42.616;23.350;2023-04-25T05:21:00;63082.47;;;10.57;100.00
6899;BME280;3488;42.616;23.350;2023-04-25T05:23:28;63071.56;;;10.43;100.00
6899;BME280;3488;42.616;23.350;2023-04-25T05:25:56;63049.84;;;10.22;100.00
6899;BME280;3488;42.616;23.350;2023-04-25T05:28:23;63043.63;;;10.16;100.00
6899;BME280;3488;42.616;23.350;2023-04-25T05:30:50;63052.84;;;10.18;100.00
6899;BME280;3488;42.616;23.350;2023-04-25T05:33:17;63055.47;;;10.23;100.00
6899;BME280;3488;42.616;23.350;2023-04-25T05:35:46;63057.03;;;10.27;100.00
6899;BME280;3488;42.616;23.350;2023-04-25T05:38:13;63033.22;;;10.04;100.00
6899;BME280;3488;42.616;23.350;2023-04-25T05:40:41;63031.16;;;10.02;100.00
6899;BME280;3488;42.616;23.350;2023-04-25T05:43:08;63045.66;;;10.16;100.00
6899;BME280;3488;42.616;23.350;2023-04-25T05:45:35;63061.19;;;10.31;100.00
6899;BME280;3488;42.616;23.350;2023-04-25T05:48:02;63066.34;;;10.36;100.00
6899;BME280;3488;42.616;23.350;2023-04-25T05:50:29;63064.28;;;10.34;100.00
6899;BME280;3488;42.616;23.350;2023-04-25T05:52:57;63080.78;;;10.47;100.00
6899;BME280;3488;42.616;23.350;2023-04-25T05:55:24;63088.63;;;10.58;100.00
6899;BME280;3488;42.616;23.350;2023-04-25T05:57:52;63105.13;;;10.71;100.00
6899;BME280;3488;42.616;23.350;2023-04-25T06:00:19;63122.72;;;10.88;100.00
6899;BME280;3488;42.616;23.350;2023-04-25T06:02:48;63101.03;;;10.70;100.00
6899;BME280;3488;42.616;23.350;2023-04-25T06:05:15;63110.84;;;10.77;100.00
6899;BME280;3488;42.616;23.350;2023-04-25T06:07:42;63114.47;;;10.83;100.00
6899;BME280;3488;42.616;23.350;2023-04-25T06:10:09;63099.03;;;10.73;100.00
6899;BME280;3488;42.616;23.350;2023-04-25T06:12:36;63090.78;;;10.65;100.00
6899;BME280;3488;42.616;23.350;2023-04-25T06:15:06;63100.50;;;10.69;100.00
6899;BME280;3488;42.616;23.350;2023-04-25T06:17:33;63119.66;;;10.88;100.00
6899;BME280;3488;42.616;23.350;2023-04-25T06:20:00;63142.44;;;11.10;100.00
6899;BME280;3488;42.616;23.350;2023-04-25T06:22:28;63153.31;;;11.20;100.00
6899;BME280;3488;42.616;23.350;2023-04-25T06:24:55;63164.19;;;11.31;100.00
6899;BME280;3488;42.616;23.350;2023-04-25T06:27:22;63165.31;;;11.37;100.00
6899;BME280;3488;42.616;23.350;2023-04-25T06:29:49;63160.53;;;11.25;100.00
6899;BME280;3488;42.616;23.350;2023-04-25T06:32:17;63170.38;;;11.34;100.00
6899;BME280;3488;42.616;23.350;2023-04-25T06:34:44;63164.16;;;11.28;100.00
6899;BME280;3488;42.616;23.350;2023-04-25T06:37:11;63151.25;;;11.18;100.00
6899;BME280;3488;42.616;23.350;2023-04-25T06:39:38;63155.91;;;11.23;100.00
6899;BME280;3488;42.616;23.350;2023-04-25T06:42:05;63194.16;;;11.55;100.00
6899;BME280;3488;42.616;23.350;2023-04-25T06:44:32;63208.81;;;11.77;100.00
6899;BME280;3488;42.616;23.350;2023-04-25T06:46:59;63222.72;;;11.88;100.00
6899;BME280;3488;42.616;23.350;2023-04-25T06:49:27;63260.53;;;12.22;100.00
6899;BME280;3488;42.616;23.350;2023-04-25T06:51:56;63303.06;;;12.65;100.00
6899;BME280;3488;42.616;23.350;2023-04-25T06:54:23;63339.88;;;13.01;100.00
6899;BME280;3488;42.616;23.350;2023-04-25T06:56:52;63311.34;;;12.73;100.00
6899;BME280;3488;42.616;23.350;2023-04-25T06:59:19;63344.03;;;13.03;100.00
6899;BME280;3488;42.616;23.350;2023-04-25T07:01:46;63385.59;;;13.48;100.00
6899;BME280;3488;42.616;23.350;2023-04-25T07:04:13;63414.66;;;13.76;100.00
6899;BME280;3488;42.616;23.350;2023-04-25T07:06:42;63402.13;;;13.59;100.00
6899;BME280;3488;42.616;23.350;2023-04-25T07:09:09;63365.31;;;13.26;100.00
6899;BME280;3488;42.616;23.350;2023-04-25T07:11:36;63409.91;;;13.66;100.00
6899;BME280;3488;42.616;23.350;2023-04-25T07:14:03;63411.00;;;13.70;100.00
6899;BME280;3488;42.616;23.350;2023-04-25T07:16:30;63416.19;;;13.75;100.00
6899;BME280;3488;42.616;23.350;2023-04-25T07:18:57;63400.16;;;13.64;100.00
6899;BME280;3488;42.616;23.350;2023-04-25T07:21:24;63397.53;;;13.59;100.00
6899;BME280;3488;42.616;23.350;2023-04-25T07:23:53;63399.53;;;13.56;100.00
6899;BME280;3488;42.616;23.350;2023-04-25T07:26:20;63402.25;;;13.66;100.00
6899;BME280;3488;42.616;23.350;2023-04-25T07:28:47;63424.41;;;13.78;100.00
6899;BME280;3488;42.616;23.350;2023-04-25T07:31:16;63428.16;;;13.89;100.00
6899;BME280;3488;42.616;23.350;2023-04-25T07:33:43;63427.63;;;13.88;100.00
6899;BME280;3488;42.616;23.350;2023-04-25T07:36:12;63445.16;;;13.98;100.00
6899;BME280;3488;42.616;23.350;2023-04-25T07:38:41;63429.72;;;13.90;100.00
6899;BME280;3488;42.616;23.350;2023-04-25T07:41:09;63413.97;;;13.65;100.00
6899;BME280;3488;42.616;23.350;2023-04-25T07:43:37;63385.03;;;13.45;100.00
6899;BME280;3488;42.616;23.350;2023-04-25T07:46:04;63395.94;;;13.55;100.00
6899;BME280;3488;42.616;23.350;2023-04-25T07:48:31;63419.31;;;13.80;100.00
6899;BME280;3488;42.616;23.350;2023-04-25T07:50:58;63413.03;;;13.72;100.00
6899;BME280;3488;42.616;23.350;2023-04-25T07:53:25;63403.75;;;13.65;100.00
6899;BME280;3488;42.616;23.350;2023-04-25T07:55:52;63396.47;;;13.58;100.00
6899;BME280;3488;42.616;23.350;2023-04-25T07:58:21;63424.94;;;13.78;100.00
6899;BME280;3488;42.616;23.350;2023-04-25T08:00:48;63435.91;;;13.94;100.00
6899;BME280;3488;42.616;23.350;2023-04-25T08:03:15;63446.75;;;14.02;100.00
6899;BME280;3488;42.616;23.350;2023-04-25T08:05:43;63458.19;;;14.13;100.00
6899;BME280;3488;42.616;23.350;2023-04-25T08:08:11;63459.28;;;14.19;100.00
6899;BME280;3488;42.616;23.350;2023-04-25T08:10:39;63452.00;;;14.12;100.00
6899;BME280;3488;42.616;23.350;2023-04-25T08:13:06;63433.84;;;13.94;100.00
6899;BME280;3488;42.616;23.350;2023-04-25T08:15:35;63466.56;;;14.26;100.00
6899;BME280;3488;42.616;23.350;2023-04-25T08:18:02;63504.41;;;14.58;100.00
6899;BME280;3488;42.616;23.350;2023-04-25T08:20:29;63537.16;;;14.92;100.00
6899;BME280;3488;42.616;23.350;2023-04-25T08:22:56;63541.84;;;14.96;100.00
6899;BME280;3488;42.616;23.350;2023-04-25T08:25:23;63577.13;;;15.28;100.00
6899;BME280;3488;42.616;23.350;2023-04-25T08:27:50;63603.19;;;15.56;100.00
6899;BME280;3488;42.616;23.350;2023-04-25T08:30:17;63590.72;;;15.44;99.66
6899;BME280;3488;42.616;23.350;2023-04-25T08:32:46;63586.53;;;15.40;96.45
6899;BME280;3488;42.616;23.350;2023-04-25T08:35:13;63574.56;;;15.28;97.15
6899;BME280;3488;42.616;23.350;2023-04-25T08:37:41;63590.72;;;15.44;94.44
6899;BME280;3488;42.616;23.350;2023-04-25T08:40:13;63621.88;;;15.74;94.05
6899;BME280;3488;42.616;23.350;2023-04-25T08:42:41;63647.34;;;15.98;87.78
6899;BME280;3488;42.616;23.350;2023-04-25T08:45:09;63672.88;;;16.26;90.27
6899;BME280;3488;42.616;23.350;2023-04-25T08:47:38;63683.78;;;16.34;86.77
6899;BME280;3488;42.616;23.350;2023-04-25T08:50:08;63708.69;;;16.53;85.06
6899;BME280;3488;42.616;23.350;2023-04-25T08:52:37;63725.41;;;16.74;79.46
6899;BME280;3488;42.616;23.350;2023-04-25T08:55:09;63668.16;;;16.18;73.20
6899;BME280;3488;42.616;23.350;2023-04-25T08:57:36;63601.09;;;15.54;76.84
6899;BME280;3488;42.616;23.350;2023-04-25T09:00:05;63546.00;;;15.00;87.74
6899;BME280;3488;42.616;23.350;2023-04-25T09:02:33;63527.34;;;14.85;83.62
6899;BME280;3488;42.616;23.350;2023-04-25T09:05:01;63548.56;;;15.00;86.64
6899;BME280;3488;42.616;23.350;2023-04-25T09:07:31;63563.13;;;15.17;85.40
6899;BME280;3488;42.616;23.350;2023-04-25T09:09:58;63587.00;;;15.38;84.92
6899;BME280;3488;42.616;23.350;2023-04-25T09:12:29;63618.75;;;15.71;84.85
6899;BME280;3488;42.616;23.350;2023-04-25T09:15:04;63604.72;;;15.57;79.29
6899;BME280;3488;42.616;23.350;2023-04-25T09:17:31;63565.75;;;15.20;88.87
6899;BME280;3488;42.616;23.350;2023-04-25T09:20:06;63552.16;;;15.01;91.86
6899;BME280;3488;42.616;23.350;2023-04-25T09:22:36;63555.38;;;15.12;92.36
6899;BME280;3488;42.616;23.350;2023-04-25T09:25:08;63551.69;;;15.03;84.40
6899;BME280;3488;42.616;23.350;2023-04-25T09:27:36;63573.53;;;15.27;89.10
6899;BME280;3488;42.616;23.350;2023-04-25T09:30:03;63590.16;;;15.41;93.40
6899;BME280;3488;42.616;23.350;2023-04-25T09:32:30;63613.03;;;15.65;87.23
6899;BME280;3488;42.616;23.350;2023-04-25T09:34:58;63628.66;;;15.83;81.04
6899;BME280;3488;42.616;23.350;2023-04-25T09:37:26;63568.31;;;15.22;100.00
6899;BME280;3488;42.616;23.350;2023-04-25T09:39:56;63540.75;;;14.93;100.00
6899;BME280;3488;42.616;23.350;2023-04-25T09:42:25;63535.09;;;14.90;100.00
6899;BME280;3488;42.616;23.350;2023-04-25T09:44:53;63528.34;;;14.83;100.00
6899;BME280;3488;42.616;23.350;2023-04-25T09:47:22;63524.69;;;14.80;100.00
6899;BME280;3488;42.616;23.350;2023-04-25T09:49:50;63520.53;;;14.73;100.00
6899;BME280;3488;42.616;23.350;2023-04-25T09:52:18;63517.94;;;14.73;100.00
6899;BME280;3488;42.616;23.350;2023-04-25T09:54:46;63514.88;;;14.73;100.00
6899;BME280;3488;42.616;23.350;2023-04-25T09:57:16;63540.75;;;14.90;100.00
6899;BME280;3488;42.616;23.350;2023-04-25T09:59:44;63534.06;;;14.89;100.00
6899;BME280;3488;42.616;23.350;2023-04-25T10:02:13;63530.38;;;14.83;100.00
6899;BME280;3488;42.616;23.350;2023-04-25T10:04:41;63533.00;;;14.88;100.00
6899;BME280;3488;42.616;23.350;2023-04-25T10:07:09;63544.94;;;14.97;100.00
6899;BME280;3488;42.616;23.350;2023-04-25T10:09:37;63546.47;;;14.98;100.00
6899;BME280;3488;42.616;23.350;2023-04-25T10:12:07;63537.63;;;14.87;100.00
6899;BME280;3488;42.616;23.350;2023-04-25T10:14:35;63527.25;;;14.80;100.00
6899;BME280;3488;42.616;23.350;2023-04-25T10:17:03;63553.28;;;15.10;97.15
6899;BME280;3488;42.616;23.350;2023-04-25T10:19:30;63578.75;;;15.35;99.23
6899;BME280;3488;42.616;23.350;2023-04-25T10:22:06;63569.34;;;15.21;84.96
6899;BME280;3488;42.616;23.350;2023-04-25T10:24:35;63577.19;;;15.33;79.75
6899;BME280;3488;42.616;23.350;2023-04-25T10:27:03;63550.66;;;15.02;73.03
6899;BME280;3488;42.616;23.350;2023-04-25T10:29:31;63556.44;;;15.13;68.00
6899;BME280;3488;42.616;23.350;2023-04-25T10:32:00;63561.06;;;15.15;72.85
6899;BME280;3488;42.616;23.350;2023-04-25T10:34:38;63574.53;;;15.26;67.34
6899;BME280;3488;42.616;23.350;2023-04-25T10:37:08;63556.91;;;15.11;66.39
6899;BME280;3488;42.616;23.350;2023-04-25T10:39:38;63540.25;;;14.92;68.43
6899;BME280;3488;42.616;23.350;2023-04-25T10:42:06;63506.53;;;14.62;68.02
6899;BME280;3488;42.616;23.350;2023-04-25T10:44:34;63503.38;;;14.57;68.23
6899;BME280;3488;42.616;23.350;2023-04-25T10:47:07;63535.56;;;14.88;62.71
6899;BME280;3488;42.616;23.350;2023-04-25T10:49:36;63553.28;;;15.07;61.29
6899;BME280;3488;42.616;23.350;2023-04-25T10:52:25;63536.22;;;14.98;57.79
6899;BME280;3488;42.616;23.350;2023-04-25T10:54:54;63543.91;;;14.96;60.38
6899;BME280;3488;42.616;23.350;2023-04-25T10:57:31;63539.25;;;14.94;59.94
6899;BME280;3488;42.616;23.350;2023-04-25T11:00:07;63528.28;;;14.81;60.86
6899;BME280;3488;42.616;23.350;2023-04-25T11:02:45;63508.13;;;14.66;67.53
6899;BME280;3488;42.616;23.350;2023-04-25T11:05:31;63457.66;;;14.13;83.86
6899;BME280;3488;42.616;23.350;2023-04-25T11:07:59;63418.22;;;13.74;90.17
6899;BME280;3488;42.616;23.350;2023-04-25T11:10:26;63380.41;;;13.43;98.35
6899;BME280;3488;42.616;23.350;2023-04-25T11:12:53;63353.41;;;13.17;100.00
6899;BME280;3488;42.616;23.350;2023-04-25T11:15:20;63333.16;;;12.95;100.00
6899;BME280;3488;42.616;23.350;2023-04-25T11:17:51;63343.53;;;13.05;100.00
6899;BME280;3488;42.616;23.350;2023-04-25T11:20:18;63363.75;;;13.24;100.00
6899;BME280;3488;42.616;23.350;2023-04-25T11:22:46;63374.06;;;13.29;100.00
6899;BME280;3488;42.616;23.350;2023-04-25T11:25:15;63392.31;;;13.52;100.00
6899;BME280;3488;42.616;23.350;2023-04-25T11:27:52;63432.78;;;13.91;100.00
6899;BME280;3488;42.616;23.350;2023-04-25T11:30:20;63498.25;;;14.57;100.00
6899;BME280;3488;42.616;23.350;2023-04-25T11:32:48;63551.16;;;15.03;92.58
6899;BME280;3488;42.616;23.350;2023-04-25T11:35:16;63586.50;;;15.37;84.90
6899;BME280;3488;42.616;23.350;2023-04-25T11:37:43;63600.09;;;15.55;91.60
6899;BME280;3488;42.616;23.350;2023-04-25T11:40:12;63538.78;;;14.96;94.56
6899;BME280;3488;42.616;23.350;2023-04-25T11:42:43;63507.53;;;14.61;100.00
6899;BME280;3488;42.616;23.350;2023-04-25T11:45:11;63480.56;;;14.37;97.05
6899;BME280;3488;42.616;23.350;2023-04-25T11:47:38;63445.19;;;14.01;100.00
6899;BME280;3488;42.616;23.350;2023-04-25T11:50:08;63427.06;;;13.85;100.00
6899;BME280;3488;42.616;23.350;2023-04-25T11:52:40;63402.66;;;13.59;100.00
6899;BME280;3488;42.616;23.350;2023-04-25T11:55:09;63387.59;;;13.45;100.00
6899;BME280;3488;42.616;23.350;2023-04-25T11:57:37;63341.88;;;12.98;100.00
6899;BME280;3488;42.616;23.350;2023-04-25T12:00:11;63266.75;;;12.28;100.00
6899;BME280;3488;42.616;23.350;2023-04-25T12:02:42;63224.25;;;11.87;100.00
6899;BME280;3488;42.616;23.350;2023-04-25T12:05:12;63204.03;;;11.67;100.00
6899;BME280;3488;42.616;23.350;2023-04-25T12:07:40;63180.75;;;11.47;100.00
6899;BME280;3488;42.616;23.350;2023-04-25T12:10:10;63169.34;;;11.33;100.00
6899;BME280;3488;42.616;23.350;2023-04-25T12:12:40;63171.44;;;11.38;100.00
6899;BME280;3488;42.616;23.350;2023-04-25T12:15:09;63184.81;;;11.46;100.00
6899;BME280;3488;42.616;23.350;2023-04-25T12:17:37;63205.03;;;11.66;100.00
6899;BME280;3488;42.616;23.350;2023-04-25T12:20:12;63224.28;;;11.89;100.00
6899;BME280;3488;42.616;23.350;2023-04-25T12:22:40;63267.78;;;12.29;100.00
6899;BME280;3488;42.616;23.350;2023-04-25T12:25:10;63310.34;;;12.72;100.00
6899;BME280;3488;42.616;23.350;2023-04-25T12:27:38;63360.09;;;13.18;100.00
6899;BME280;3488;42.616;23.350;2023-04-25T12:30:08;63402.69;;;13.62;100.00
6899;BME280;3488;42.616;23.350;2023-04-25T12:32:40;63422.88;;;13.79;92.57
6899;BME280;3488;42.616;23.350;2023-04-25T12:35:08;63431.22;;;13.89;97.59
6899;BME280;3488;42.616;23.350;2023-04-25T12:37:39;63422.41;;;13.81;86.08
6899;BME280;3488;42.616;23.350;2023-04-25T12:40:08;63418.25;;;13.77;84.79
6899;BME280;3488;42.616;23.350;2023-04-25T12:42:35;63429.19;;;13.90;89.34
6899;BME280;3488;42.616;23.350;2023-04-25T12:45:02;63409.91;;;13.66;97.96
6899;BME280;3488;42.616;23.350;2023-04-25T12:47:30;63312.97;;;12.77;100.00
6899;BME280;3488;42.616;23.350;2023-04-25T12:49:57;63295.38;;;12.63;100.00
6899;BME280;3488;42.616;23.350;2023-04-25T12:52:24;63298.91;;;12.61;100.00
6899;BME280;3488;42.616;23.350;2023-04-25T12:54:52;63285.38;;;12.43;100.00
6899;BME280;3488;42.616;23.350;2023-04-25T12:57:19;63269.34;;;12.30;100.00
6899;BME280;3488;42.616;23.350;2023-04-25T12:59:46;63261.66;;;12.28;100.00
6899;BME280;3488;42.616;23.350;2023-04-25T13:02:13;63254.31;;;12.16;100.00
6899;BME280;3488;42.616;23.350;2023-04-25T13:04:40;63262.13;;;12.26;100.00
6899;BME280;3488;42.616;23.350;2023-04-25T13:07:07;63256.94;;;12.21;100.00
6899;BME280;3488;42.616;23.350;2023-04-25T13:09:34;63268.31;;;12.29;100.00